createdAt,value
2023-02-14T00:00:57.716Z,1035.57
2023-02-14T00:01:53.750Z,1035.57
2023-02-14T00:02:53.162Z,1035.56
2023-02-14T00:03:53.450Z,1035.57
2023-02-14T00:04:50.189Z,1035.53
2023-02-14T00:06:00.595Z,1035.49
2023-02-14T00:06:52.316Z,1035.45
2023-02-14T00:07:50.803Z,1035.48
2023-02-14T00:08:50.813Z,1035.53
2023-02-14T00:09:50.442Z,1035.51
2023-02-14T00:10:52.404Z,1035.48
2023-02-14T00:11:50.792Z,1035.52
2023-02-14T00:13:00.726Z,1035.49
2023-02-14T00:13:51.034Z,1035.56
2023-02-14T00:14:51.246Z,1035.53
2023-02-14T00:15:52.096Z,1035.60
2023-02-14T00:16:57.859Z,1035.57
2023-02-14T00:17:54.990Z,1035.53
2023-02-14T00:18:56.478Z,1035.58
2023-02-14T00:19:50.771Z,1035.55
2023-02-14T00:20:51.026Z,1035.56
2023-02-14T00:21:54.992Z,1035.60
2023-02-14T00:22:55.481Z,1035.57
2023-02-14T00:23:51.009Z,1035.59
2023-02-14T00:24:54.534Z,1035.57
2023-02-14T00:25:57.771Z,1035.59
2023-02-14T00:26:49.916Z,1035.55
2023-02-14T00:27:51.540Z,1035.56
2023-02-14T00:30:39.857Z,1035.51
2023-02-14T00:31:02.621Z,1035.57
2023-02-14T00:32:05.862Z,1035.56
2023-02-14T00:33:01.208Z,1035.58
2023-02-14T00:35:27.250Z,1035.62
2023-02-14T00:36:19.525Z,1035.55
2023-02-14T00:37:41.318Z,1035.59
2023-02-14T00:38:21.765Z,1035.57
2023-02-14T00:39:27.477Z,1035.60
2023-02-14T00:40:24.582Z,1035.59
2023-02-14T00:41:18.183Z,1035.62
2023-02-14T00:42:18.751Z,1035.61
2023-02-14T00:43:17.980Z,1035.53
2023-02-14T00:44:22.668Z,1035.55
2023-02-14T00:45:26.874Z,1035.50
2023-02-14T00:46:22.189Z,1035.52
2023-02-14T00:47:26.879Z,1035.54
2023-02-14T00:48:27.425Z,1035.54
2023-02-14T00:49:36.909Z,1035.55
2023-02-14T00:50:22.400Z,1035.49
2023-02-14T00:51:26.127Z,1035.51
2023-02-14T00:52:31.175Z,1035.53
2023-02-14T00:53:24.937Z,1035.53
2023-02-14T00:54:31.441Z,1035.51
2023-02-14T00:55:27.419Z,1035.47
2023-02-14T00:56:22.175Z,1035.47
2023-02-14T00:57:46.592Z,1035.46
2023-02-14T00:58:18.726Z,1035.47
2023-02-14T00:59:30.073Z,1035.44
2023-02-14T01:00:21.343Z,1035.47
2023-02-14T01:01:23.117Z,1035.45
2023-02-14T01:02:23.911Z,1035.45
2023-02-14T01:03:26.314Z,1035.44
2023-02-14T01:04:30.460Z,1035.45
2023-02-14T01:05:25.741Z,1035.43
2023-02-14T01:06:29.029Z,1035.48
2023-02-14T01:07:23.857Z,1035.47
2023-02-14T01:08:28.749Z,1035.45
2023-02-14T01:09:20.649Z,1035.50
2023-02-14T01:10:32.736Z,1035.47
2023-02-14T01:11:20.591Z,1035.54
2023-02-14T01:12:26.019Z,1035.49
2023-02-14T01:13:20.783Z,1035.49
2023-02-14T01:14:30.274Z,1035.42
2023-02-14T01:15:19.722Z,1035.41
2023-02-14T01:16:32.453Z,1035.41
2023-02-14T01:17:23.403Z,1035.42
2023-02-14T01:18:30.877Z,1035.40
2023-02-14T01:19:30.504Z,1035.43
2023-02-14T01:20:30.780Z,1035.38
2023-02-14T01:21:27.323Z,1035.39
2023-02-14T01:22:39.028Z,1035.42
2023-02-14T01:23:30.049Z,1035.42
2023-02-14T01:24:19.800Z,1035.41
2023-02-14T01:25:16.839Z,1035.39
2023-02-14T01:26:23.980Z,1035.34
2023-02-14T01:27:21.764Z,1035.32
2023-02-14T01:28:33.183Z,1035.41
2023-02-14T01:29:25.610Z,1035.36
2023-02-14T01:30:22.968Z,1035.37
2023-02-14T01:31:27.426Z,1035.34
2023-02-14T01:32:26.787Z,1035.38
2023-02-14T01:33:18.043Z,1035.38
2023-02-14T01:34:19.005Z,1035.38
2023-02-14T01:35:22.086Z,1035.34
2023-02-14T01:36:50.509Z,1035.33
2023-02-14T01:37:20.326Z,1035.31
2023-02-14T01:38:24.374Z,1035.28
2023-02-14T01:39:17.375Z,1035.31
2023-02-14T01:40:22.516Z,1035.27
2023-02-14T01:41:31.959Z,1035.27
2023-02-14T01:42:28.296Z,1035.29
2023-02-14T01:43:43.507Z,1035.27
2023-02-14T01:44:17.959Z,1035.28
2023-02-14T01:45:19.497Z,1035.29
2023-02-14T01:46:25.063Z,1035.31
2023-02-14T01:47:18.484Z,1035.35
2023-02-14T01:48:28.691Z,1035.31
2023-02-14T01:49:30.135Z,1035.29
2023-02-14T01:50:23.495Z,1035.32
2023-02-14T01:51:21.167Z,1035.32
2023-02-14T01:52:23.063Z,1035.30
2023-02-14T01:53:21.906Z,1035.27
2023-02-14T01:54:31.780Z,1035.27
2023-02-14T01:55:20.727Z,1035.26
2023-02-14T01:56:18.124Z,1035.24
2023-02-14T01:57:27.280Z,1035.27
2023-02-14T01:58:36.964Z,1035.29
2023-02-14T01:59:28.530Z,1035.28
2023-02-14T02:00:22.610Z,1035.25
2023-02-14T02:01:26.652Z,1035.21
2023-02-14T02:02:48.035Z,1035.23
2023-02-14T02:03:18.526Z,1035.16
2023-02-14T02:04:18.835Z,1035.20
2023-02-14T02:05:23.124Z,1035.15
2023-02-14T02:06:16.769Z,1035.14
2023-02-14T02:07:18.188Z,1035.10
2023-02-14T02:08:15.755Z,1035.14
2023-02-14T02:09:17.752Z,1035.11
2023-02-14T02:10:18.192Z,1035.13
2023-02-14T02:11:16.762Z,1035.12
2023-02-14T02:12:18.981Z,1035.15
2023-02-14T02:13:17.112Z,1035.19
2023-02-14T02:14:18.300Z,1035.18
2023-02-14T02:15:19.261Z,1035.16
2023-02-14T02:16:16.799Z,1035.15
2023-02-14T02:17:17.241Z,1035.14
2023-02-14T02:18:18.717Z,1035.16
2023-02-14T02:19:18.634Z,1035.12
2023-02-14T02:20:16.951Z,1035.18
2023-02-14T02:21:18.631Z,1035.14
2023-02-14T02:22:21.931Z,1035.08
2023-02-14T02:23:16.492Z,1035.10
2023-02-14T02:24:21.455Z,1035.08
2023-02-14T02:25:20.880Z,1035.07
2023-02-14T02:26:19.651Z,1035.05
2023-02-14T02:27:21.647Z,1035.06
2023-02-14T02:28:25.964Z,1035.04
2023-02-14T02:29:19.647Z,1035.01
2023-02-14T02:30:20.579Z,1035.01
2023-02-14T02:31:20.254Z,1035.02
2023-02-14T02:32:18.903Z,1034.98
2023-02-14T02:33:18.266Z,1035.05
2023-02-14T02:34:16.221Z,1035.04
2023-02-14T02:35:17.089Z,1035.04
2023-02-14T02:36:17.018Z,1035.03
2023-02-14T02:37:20.316Z,1035.03
2023-02-14T02:38:40.444Z,1035.01
2023-02-14T02:39:19.948Z,1035.01
2023-02-14T02:40:17.680Z,1035.00
2023-02-14T02:41:19.835Z,1035.02
2023-02-14T02:42:48.465Z,1035.02
2023-02-14T02:43:17.241Z,1035.02
2023-02-14T02:44:19.171Z,1035.03
2023-02-14T02:45:22.211Z,1035.01
2023-02-14T02:46:17.052Z,1034.98
2023-02-14T02:47:16.860Z,1035.04
2023-02-14T02:48:19.963Z,1035.01
2023-02-14T02:49:20.242Z,1034.97
2023-02-14T02:50:17.276Z,1035.01
2023-02-14T02:51:24.007Z,1035.02
2023-02-14T02:52:19.069Z,1035.04
2023-02-14T02:53:23.116Z,1035.02
2023-02-14T02:54:30.286Z,1035.05
2023-02-14T02:55:22.462Z,1035.03
2023-02-14T02:56:22.036Z,1035.03
2023-02-14T02:57:18.269Z,1035.04
2023-02-14T02:58:24.724Z,1035.03
2023-02-14T02:59:17.615Z,1035.06
2023-02-14T03:00:24.107Z,1035.03
2023-02-14T03:01:20.261Z,1035.03
2023-02-14T03:02:43.674Z,1035.01
2023-02-14T03:03:21.829Z,1035.00
2023-02-14T03:08:18.722Z,1034.93
2023-02-14T03:09:29.235Z,1034.94
2023-02-14T03:11:44.795Z,1034.95
2023-02-14T03:12:44.809Z,1034.99
2023-02-14T03:13:48.377Z,1034.99
2023-02-14T03:14:44.622Z,1034.98
2023-02-14T03:15:42.641Z,1034.94
2023-02-14T03:16:44.819Z,1034.96
2023-02-14T03:17:53.646Z,1035.00
2023-02-14T03:18:44.554Z,1034.98
2023-02-14T03:19:49.234Z,1034.94
2023-02-14T03:21:12.166Z,1034.95
2023-02-14T03:21:50.799Z,1034.94
2023-02-14T03:22:45.095Z,1034.97
2023-02-14T03:23:52.430Z,1034.98
2023-02-14T03:24:52.315Z,1034.92
2023-02-14T03:25:42.051Z,1034.91
2023-02-14T03:26:43.819Z,1034.91
2023-02-14T03:27:43.915Z,1034.84
2023-02-14T03:28:50.810Z,1034.83
2023-02-14T03:29:55.612Z,1034.82
2023-02-14T03:30:54.842Z,1034.84
2023-02-14T03:32:07.657Z,1034.86
2023-02-14T03:32:46.144Z,1034.83
2023-02-14T03:33:42.823Z,1034.88
2023-02-14T03:34:43.989Z,1034.82
2023-02-14T03:35:47.934Z,1034.85
2023-02-14T03:36:48.126Z,1034.81
2023-02-14T03:37:53.745Z,1034.83
2023-02-14T03:38:48.828Z,1034.83
2023-02-14T03:39:43.580Z,1034.79
2023-02-14T03:40:53.575Z,1034.80
2023-02-14T03:41:54.397Z,1034.80
2023-02-14T03:42:48.930Z,1034.82
2023-02-14T03:43:47.927Z,1034.81
2023-02-14T03:44:45.232Z,1034.77
2023-02-14T03:45:55.523Z,1034.80
2023-02-14T03:46:45.086Z,1034.76
2023-02-14T03:47:59.170Z,1034.80
2023-02-14T03:48:54.574Z,1034.83
2023-02-14T03:49:46.945Z,1034.74
2023-02-14T03:50:46.331Z,1034.79
2023-02-14T03:51:46.771Z,1034.80
2023-02-14T03:52:45.459Z,1034.74
2023-02-14T03:53:47.336Z,1034.78
2023-02-14T03:54:51.358Z,1034.72
2023-02-14T03:55:45.438Z,1034.71
2023-02-14T03:56:43.518Z,1034.70
2023-02-14T03:57:48.549Z,1034.64
2023-02-14T03:58:48.378Z,1034.67
2023-02-14T03:59:49.131Z,1034.63
2023-02-14T04:00:46.482Z,1034.65
2023-02-14T04:01:54.288Z,1034.63
2023-02-14T04:02:43.218Z,1034.60
2023-02-14T04:03:43.206Z,1034.56
2023-02-14T04:04:46.078Z,1034.55
2023-02-14T04:05:45.132Z,1034.59
2023-02-14T04:06:44.148Z,1034.56
2023-02-14T04:13:27.963Z,1034.54
2023-02-14T04:14:27.467Z,1034.54
2023-02-14T04:15:25.108Z,1034.58
2023-02-14T04:16:25.394Z,1034.58
2023-02-14T04:17:26.237Z,1034.57
2023-02-14T04:18:25.670Z,1034.59
2023-02-14T04:19:23.032Z,1034.52
2023-02-14T04:20:23.552Z,1034.54
2023-02-14T04:21:24.180Z,1034.57
2023-02-14T04:23:56.588Z,1034.53
2023-02-14T04:24:33.582Z,1034.54
2023-02-14T04:25:33.571Z,1034.56
2023-02-14T04:26:33.479Z,1034.56
2023-02-14T04:27:33.388Z,1034.58
2023-02-14T04:28:33.521Z,1034.57
2023-02-14T04:29:39.561Z,1034.56
2023-02-14T04:30:36.518Z,1034.53
2023-02-14T04:31:34.694Z,1034.52
2023-02-14T04:32:39.597Z,1034.48
2023-02-14T04:33:52.417Z,1034.48
2023-02-14T04:34:34.997Z,1034.44
2023-02-14T04:35:33.908Z,1034.45
2023-02-14T04:36:33.363Z,1034.44
2023-02-14T04:37:33.359Z,1034.44
2023-02-14T04:38:33.469Z,1034.43
2023-02-14T04:39:35.721Z,1034.48
2023-02-14T04:40:36.096Z,1034.48
2023-02-14T04:41:34.786Z,1034.45
2023-02-14T04:44:08.938Z,1034.43
2023-02-14T04:45:04.416Z,1034.43
2023-02-14T04:46:03.416Z,1034.46
2023-02-14T04:47:03.543Z,1034.45
2023-02-14T04:48:03.527Z,1034.48
2023-02-14T04:49:03.354Z,1034.45
2023-02-14T04:50:03.437Z,1034.42
2023-02-14T04:51:03.436Z,1034.41
2023-02-14T04:52:03.442Z,1034.48
2023-02-14T04:53:03.256Z,1034.41
2023-02-14T04:54:03.281Z,1034.45
2023-02-14T04:55:03.360Z,1034.46
2023-02-14T04:56:03.596Z,1034.42
2023-02-14T04:57:03.302Z,1034.45
2023-02-14T04:58:03.397Z,1034.46
2023-02-14T04:59:03.200Z,1034.41
2023-02-14T05:00:03.397Z,1034.38
2023-02-14T05:01:03.737Z,1034.42
2023-02-14T05:02:03.231Z,1034.42
2023-02-14T05:03:03.317Z,1034.38
2023-02-14T05:04:08.817Z,1034.41
2023-02-14T05:05:06.743Z,1034.43
2023-02-14T05:06:08.241Z,1034.38
2023-02-14T05:07:26.972Z,1034.46
2023-02-14T05:09:09.265Z,1034.39
2023-02-14T05:10:28.424Z,1034.42
2023-02-14T05:11:08.418Z,1034.49
2023-02-14T05:12:05.228Z,1034.47
2023-02-14T05:13:10.279Z,1034.49
2023-02-14T05:14:15.879Z,1034.42
2023-02-14T05:15:13.922Z,1034.43
2023-02-14T05:16:10.481Z,1034.43
2023-02-14T05:17:12.523Z,1034.42
2023-02-14T05:21:06.570Z,1034.37
2023-02-14T05:21:33.262Z,1034.41
2023-02-14T05:22:32.995Z,1034.40
2023-02-14T05:23:40.113Z,1034.37
2023-02-14T05:24:42.903Z,1034.36
2023-02-14T05:25:29.899Z,1034.36
2023-02-14T05:26:38.421Z,1034.34
2023-02-14T05:27:31.258Z,1034.34
2023-02-14T05:28:36.991Z,1034.35
2023-02-14T05:29:35.336Z,1034.33
2023-02-14T05:30:36.235Z,1034.37
2023-02-14T05:31:37.906Z,1034.37
2023-02-14T05:32:35.591Z,1034.40
2023-02-14T05:33:34.747Z,1034.45
2023-02-14T05:34:35.246Z,1034.42
2023-02-14T05:35:32.305Z,1034.40
2023-02-14T05:36:39.785Z,1034.43
2023-02-14T05:37:47.220Z,1034.42
2023-02-14T05:38:52.377Z,1034.37
2023-02-14T05:39:34.963Z,1034.36
2023-02-14T05:40:38.141Z,1034.35
2023-02-14T05:42:35.856Z,1034.34
2023-02-14T05:43:44.166Z,1034.39
2023-02-14T05:44:35.114Z,1034.38
2023-02-14T05:45:41.146Z,1034.36
2023-02-14T05:46:37.722Z,1034.37
2023-02-14T05:47:37.952Z,1034.34
2023-02-14T05:48:40.823Z,1034.37
2023-02-14T05:49:40.639Z,1034.37
2023-02-14T05:50:43.902Z,1034.34
2023-02-14T05:51:42.381Z,1034.35
2023-02-14T05:52:45.200Z,1034.33
2023-02-14T05:53:50.884Z,1034.29
2023-02-14T05:54:41.960Z,1034.26
2023-02-14T05:55:35.032Z,1034.28
2023-02-14T05:56:35.763Z,1034.32
2023-02-14T05:58:31.868Z,1034.24
2023-02-14T05:59:48.974Z,1034.30
2023-02-14T06:00:42.337Z,1034.28
2023-02-14T06:01:34.974Z,1034.28
2023-02-14T06:02:43.412Z,1034.30
2023-02-14T06:03:44.434Z,1034.28
2023-02-14T06:06:39.965Z,1034.27
2023-02-14T06:07:01.442Z,1034.22
2023-02-14T06:07:59.637Z,1034.19
2023-02-14T06:09:10.576Z,1034.25
2023-02-14T06:09:54.329Z,1034.22
2023-02-14T06:10:52.740Z,1034.27
2023-02-14T06:11:48.908Z,1034.26
2023-02-14T06:14:46.095Z,1034.20
2023-02-14T06:15:41.546Z,1034.28
2023-02-14T06:16:43.177Z,1034.28
2023-02-14T06:17:43.019Z,1034.30
2023-02-14T06:19:03.574Z,1034.31
2023-02-14T06:19:43.150Z,1034.35
2023-02-14T06:20:42.635Z,1034.35
2023-02-14T06:21:47.031Z,1034.32
2023-02-14T06:22:45.508Z,1034.35
2023-02-14T06:23:43.496Z,1034.32
2023-02-14T06:24:39.676Z,1034.35
2023-02-14T06:25:42.647Z,1034.33
2023-02-14T06:26:43.866Z,1034.36
2023-02-14T06:27:46.742Z,1034.38
2023-02-14T06:28:41.798Z,1034.40
2023-02-14T06:29:39.185Z,1034.42
2023-02-14T06:30:39.262Z,1034.42
2023-02-14T06:31:40.288Z,1034.43
2023-02-14T06:32:39.118Z,1034.42
2023-02-14T06:33:39.005Z,1034.45
2023-02-14T06:34:39.014Z,1034.47
2023-02-14T06:35:38.999Z,1034.44
2023-02-14T06:36:39.140Z,1034.44
2023-02-14T06:37:38.981Z,1034.45
2023-02-14T06:38:38.833Z,1034.43
2023-02-14T06:39:44.187Z,1034.46
2023-02-14T06:42:00.294Z,1034.41
2023-02-14T06:42:51.234Z,1034.45
2023-02-14T06:43:51.207Z,1034.43
2023-02-14T06:44:51.176Z,1034.38
2023-02-14T06:45:51.268Z,1034.43
2023-02-14T06:46:51.092Z,1034.41
2023-02-14T06:47:53.847Z,1034.40
2023-02-14T06:48:52.217Z,1034.43
2023-02-14T06:49:51.293Z,1034.39
2023-02-14T06:50:51.186Z,1034.38
2023-02-14T06:51:52.255Z,1034.42
2023-02-14T06:52:51.102Z,1034.40
2023-02-14T06:53:51.012Z,1034.40
2023-02-14T06:54:51.034Z,1034.43
2023-02-14T06:55:51.133Z,1034.46
2023-02-14T06:56:51.160Z,1034.44
2023-02-14T06:57:51.137Z,1034.43
2023-02-14T06:58:51.259Z,1034.46
2023-02-14T06:59:51.052Z,1034.48
2023-02-14T07:00:51.056Z,1034.49
2023-02-14T07:01:51.058Z,1034.50
2023-02-14T07:02:51.483Z,1034.49
2023-02-14T07:03:50.963Z,1034.47
2023-02-14T07:04:51.080Z,1034.47
2023-02-14T07:05:50.904Z,1034.50
2023-02-14T07:06:50.988Z,1034.47
2023-02-14T07:07:50.938Z,1034.51
2023-02-14T07:08:51.825Z,1034.46
2023-02-14T07:09:51.420Z,1034.45
2023-02-14T07:10:52.625Z,1034.45
2023-02-14T07:11:51.904Z,1034.42
2023-02-14T07:12:50.843Z,1034.44
2023-02-14T07:13:50.782Z,1034.41
2023-02-14T07:14:51.051Z,1034.36
2023-02-14T07:15:50.825Z,1034.39
2023-02-14T07:16:50.760Z,1034.40
2023-02-14T07:17:50.766Z,1034.36
2023-02-14T07:18:50.705Z,1034.38
2023-02-14T07:19:50.720Z,1034.38
2023-02-14T07:20:50.804Z,1034.36
2023-02-14T07:21:50.693Z,1034.40
2023-02-14T07:22:50.789Z,1034.37
2023-02-14T07:23:53.143Z,1034.35
2023-02-14T07:24:50.713Z,1034.34
2023-02-14T07:25:51.778Z,1034.33
2023-02-14T07:26:51.845Z,1034.36
2023-02-14T07:27:50.835Z,1034.31
2023-02-14T07:28:50.747Z,1034.31
2023-02-14T07:29:50.762Z,1034.33
2023-02-14T07:30:50.636Z,1034.34
2023-02-14T07:31:50.878Z,1034.35
2023-02-14T07:32:50.657Z,1034.34
2023-02-14T07:33:50.505Z,1034.36
2023-02-14T07:34:50.583Z,1034.36
2023-02-14T07:35:50.520Z,1034.36
2023-02-14T07:36:51.034Z,1034.37
2023-02-14T07:37:50.515Z,1034.38
2023-02-14T07:38:51.755Z,1034.38
2023-02-14T07:39:50.524Z,1034.35
2023-02-14T07:40:50.635Z,1034.35
2023-02-14T07:41:50.431Z,1034.34
2023-02-14T07:42:50.541Z,1034.37
2023-02-14T07:43:50.554Z,1034.36
2023-02-14T07:44:53.775Z,1034.34
2023-02-14T07:47:12.504Z,1034.30
2023-02-14T07:48:10.431Z,1034.34
2023-02-14T07:49:10.373Z,1034.27
2023-02-14T07:50:10.966Z,1034.29
2023-02-14T07:51:10.381Z,1034.28
2023-02-14T07:52:10.396Z,1034.26
2023-02-14T07:53:11.400Z,1034.33
2023-02-14T07:54:10.404Z,1034.27
2023-02-14T07:55:10.406Z,1034.29
2023-02-14T07:56:10.428Z,1034.30
2023-02-14T07:57:10.299Z,1034.28
2023-02-14T07:58:10.393Z,1034.29
2023-02-14T07:59:10.881Z,1034.28
2023-02-14T08:00:10.345Z,1034.28
2023-02-14T08:01:11.496Z,1034.25
2023-02-14T08:02:10.339Z,1034.28
2023-02-14T08:03:10.230Z,1034.27
2023-02-14T08:04:10.457Z,1034.29
2023-02-14T08:05:10.208Z,1034.26
2023-02-14T08:06:10.258Z,1034.28
2023-02-14T08:07:10.252Z,1034.31
2023-02-14T08:08:10.180Z,1034.26
2023-02-14T08:09:10.227Z,1034.30
2023-02-14T08:10:12.865Z,1034.30
2023-02-14T08:11:10.189Z,1034.31
2023-02-14T08:12:10.320Z,1034.30
2023-02-14T08:13:10.930Z,1034.32
2023-02-14T08:14:15.569Z,1034.30
2023-02-14T08:15:28.449Z,1034.29
2023-02-14T08:16:10.157Z,1034.28
2023-02-14T08:17:10.188Z,1034.32
2023-02-14T08:18:10.045Z,1034.30
2023-02-14T08:19:10.138Z,1034.27
2023-02-14T08:20:10.144Z,1034.28
2023-02-14T08:21:10.052Z,1034.29
2023-02-14T08:22:09.970Z,1034.32
2023-02-14T08:23:10.076Z,1034.27
2023-02-14T08:24:10.366Z,1034.28
2023-02-14T08:25:15.483Z,1034.26
2023-02-14T08:26:10.212Z,1034.24
2023-02-14T08:27:12.426Z,1034.25
2023-02-14T08:28:09.946Z,1034.25
2023-02-14T08:29:10.142Z,1034.22
2023-02-14T08:30:10.068Z,1034.22
2023-02-14T08:31:09.849Z,1034.23
2023-02-14T08:32:11.139Z,1034.25
2023-02-14T08:33:10.754Z,1034.26
2023-02-14T08:34:11.016Z,1034.24
2023-02-14T08:35:10.161Z,1034.24
2023-02-14T08:36:12.707Z,1034.21
2023-02-14T08:37:10.896Z,1034.27
2023-02-14T08:38:11.456Z,1034.29
2023-02-14T08:39:12.324Z,1034.25
2023-02-14T08:40:11.457Z,1034.25
2023-02-14T08:41:12.282Z,1034.18
2023-02-14T08:42:09.933Z,1034.25
2023-02-14T08:43:10.105Z,1034.26
2023-02-14T08:44:11.752Z,1034.21
2023-02-14T08:45:10.476Z,1034.22
2023-02-14T08:46:10.232Z,1034.21
2023-02-14T08:47:11.966Z,1034.20
2023-02-14T08:48:11.773Z,1034.20
2023-02-14T08:49:12.460Z,1034.14
2023-02-14T08:50:11.344Z,1034.18
2023-02-14T08:51:10.518Z,1034.17
2023-02-14T08:52:10.862Z,1034.17
2023-02-14T08:53:12.217Z,1034.16
2023-02-14T08:54:10.793Z,1034.17
2023-02-14T08:55:10.634Z,1034.22
2023-02-14T08:56:13.307Z,1034.21
2023-02-14T08:57:10.830Z,1034.24
2023-02-14T08:58:11.287Z,1034.19
2023-02-14T08:59:11.235Z,1034.24
2023-02-14T09:00:10.537Z,1034.22
2023-02-14T09:01:13.386Z,1034.19
2023-02-14T09:02:09.781Z,1034.18
2023-02-14T09:03:10.118Z,1034.14
2023-02-14T09:04:10.261Z,1034.11
2023-02-14T09:05:11.916Z,1034.11
2023-02-14T09:06:11.172Z,1034.14
2023-02-14T09:07:09.447Z,1034.14
2023-02-14T09:08:12.043Z,1034.17
2023-02-14T09:09:31.566Z,1034.15
2023-02-14T09:10:14.375Z,1034.15
2023-02-14T09:11:13.755Z,1034.17
2023-02-14T09:12:11.309Z,1034.20
2023-02-14T09:13:10.564Z,1034.17
2023-02-14T09:14:12.378Z,1034.19
2023-02-14T09:15:11.967Z,1034.17
2023-02-14T09:16:14.294Z,1034.14
2023-02-14T09:17:11.189Z,1034.15
2023-02-14T09:18:10.451Z,1034.13
2023-02-14T09:19:13.080Z,1034.11
2023-02-14T09:20:14.556Z,1034.14
2023-02-14T09:21:11.881Z,1034.12
2023-02-14T09:22:09.496Z,1034.12
2023-02-14T09:23:10.486Z,1034.13
2023-02-14T09:24:11.307Z,1034.10
2023-02-14T09:25:10.606Z,1034.08
2023-02-14T09:26:09.773Z,1034.08
2023-02-14T09:27:09.112Z,1034.05
2023-02-14T09:28:09.103Z,1034.10
2023-02-14T09:29:09.322Z,1034.09
2023-02-14T09:30:10.056Z,1034.11
2023-02-14T09:31:10.598Z,1034.09
2023-02-14T09:32:11.396Z,1034.09
2023-02-14T09:33:09.379Z,1034.08
2023-02-14T09:34:11.183Z,1034.06
2023-02-14T09:35:09.832Z,1034.06
2023-02-14T09:36:10.108Z,1034.06
2023-02-14T09:37:10.736Z,1034.07
2023-02-14T09:38:10.565Z,1034.06
2023-02-14T09:39:10.168Z,1034.03
2023-02-14T09:40:10.952Z,1034.06
2023-02-14T09:41:11.023Z,1034.04
2023-02-14T09:42:11.939Z,1034.10
2023-02-14T09:43:09.004Z,1034.05
2023-02-14T09:44:08.895Z,1034.07
2023-02-14T09:45:08.842Z,1034.04
2023-02-14T09:46:08.984Z,1034.05
2023-02-14T09:47:08.833Z,1034.01
2023-02-14T09:48:08.963Z,1033.99
2023-02-14T09:49:08.803Z,1034.00
2023-02-14T09:50:08.821Z,1034.03
2023-02-14T09:51:08.764Z,1034.01
2023-02-14T09:52:08.673Z,1034.00
2023-02-14T09:53:08.653Z,1033.98
2023-02-14T09:54:08.758Z,1033.98
2023-02-14T09:55:08.688Z,1033.91
2023-02-14T09:56:08.683Z,1033.92
2023-02-14T09:57:08.680Z,1033.87
2023-02-14T09:58:08.703Z,1033.86
2023-02-14T09:59:08.706Z,1033.82
2023-02-14T10:00:08.708Z,1033.87
2023-02-14T10:01:08.623Z,1033.83
2023-02-14T10:02:08.571Z,1033.86
2023-02-14T10:03:08.608Z,1033.85
2023-02-14T10:04:08.420Z,1033.83
2023-02-14T10:05:08.456Z,1033.84
2023-02-14T10:06:08.370Z,1033.84
2023-02-14T10:07:08.345Z,1033.81
2023-02-14T10:08:08.349Z,1033.80
2023-02-14T10:09:18.438Z,1033.81
2023-02-14T10:10:12.344Z,1033.80
2023-02-14T10:11:12.411Z,1033.78
2023-02-14T10:12:10.101Z,1033.76
2023-02-14T10:13:10.471Z,1033.77
2023-02-14T10:14:09.906Z,1033.78
2023-02-14T10:15:11.511Z,1033.88
2023-02-14T10:16:31.707Z,1033.83
2023-02-14T10:17:09.735Z,1033.83
2023-02-14T10:18:10.277Z,1033.80
2023-02-14T10:19:08.354Z,1033.80
2023-02-14T10:20:08.261Z,1033.78
2023-02-14T10:21:08.256Z,1033.80
2023-02-14T10:22:08.060Z,1033.82
2023-02-14T10:23:08.327Z,1033.81
2023-02-14T10:24:08.082Z,1033.85
2023-02-14T10:25:08.068Z,1033.88
2023-02-14T10:26:08.091Z,1033.87
2023-02-14T10:27:14.239Z,1033.87
2023-02-14T10:28:08.202Z,1033.84
2023-02-14T10:29:08.025Z,1033.84
2023-02-14T10:30:08.170Z,1033.84
2023-02-14T10:31:08.054Z,1033.82
2023-02-14T10:32:08.073Z,1033.75
2023-02-14T10:33:08.160Z,1033.74
2023-02-14T10:34:07.927Z,1033.71
2023-02-14T10:35:08.040Z,1033.69
2023-02-14T10:36:08.046Z,1033.68
2023-02-14T10:37:07.961Z,1033.69
2023-02-14T10:38:07.970Z,1033.68
2023-02-14T10:39:07.958Z,1033.66
2023-02-14T10:40:07.876Z,1033.66
2023-02-14T10:41:07.798Z,1033.65
2023-02-14T10:42:07.795Z,1033.63
2023-02-14T10:43:08.017Z,1033.66
2023-02-14T10:44:07.816Z,1033.66
2023-02-14T10:45:07.794Z,1033.65
2023-02-14T10:46:07.763Z,1033.61
2023-02-14T10:47:07.735Z,1033.57
2023-02-14T10:48:07.830Z,1033.57
2023-02-14T10:49:07.728Z,1033.59
2023-02-14T10:50:07.718Z,1033.63
2023-02-14T10:51:07.759Z,1033.58
2023-02-14T10:52:07.691Z,1033.60
2023-02-14T10:53:07.658Z,1033.61
2023-02-14T10:54:07.758Z,1033.63
2023-02-14T10:55:08.167Z,1033.69
2023-02-14T10:56:07.600Z,1033.64
2023-02-14T10:57:07.597Z,1033.63
2023-02-14T10:58:07.698Z,1033.63
2023-02-14T10:59:07.718Z,1033.66
2023-02-14T11:00:08.447Z,1033.62
2023-02-14T11:01:07.525Z,1033.66
2023-02-14T11:02:07.515Z,1033.67
2023-02-14T11:03:07.591Z,1033.65
2023-02-14T11:04:07.439Z,1033.69
2023-02-14T11:05:07.437Z,1033.66
2023-02-14T11:06:07.507Z,1033.60
2023-02-14T11:07:07.467Z,1033.61
2023-02-14T11:08:07.962Z,1033.63
2023-02-14T11:09:07.475Z,1033.62
2023-02-14T11:10:07.390Z,1033.63
2023-02-14T11:11:07.478Z,1033.60
2023-02-14T11:12:07.404Z,1033.55
2023-02-14T11:13:07.309Z,1033.59
2023-02-14T11:14:07.306Z,1033.60
2023-02-14T11:15:07.316Z,1033.60
2023-02-14T11:16:07.497Z,1033.58
2023-02-14T11:17:07.329Z,1033.59
2023-02-14T11:18:07.415Z,1033.60
2023-02-14T11:19:07.232Z,1033.56
2023-02-14T11:20:07.231Z,1033.52
2023-02-14T11:21:07.261Z,1033.53
2023-02-14T11:22:07.152Z,1033.49
2023-02-14T11:23:07.281Z,1033.48
2023-02-14T11:24:07.266Z,1033.49
2023-02-14T11:25:07.304Z,1033.49
2023-02-14T11:26:07.186Z,1033.44
2023-02-14T11:27:07.435Z,1033.41
2023-02-14T11:28:07.194Z,1033.47
2023-02-14T11:29:07.192Z,1033.39
2023-02-14T11:30:07.122Z,1033.41
2023-02-14T11:31:07.348Z,1033.36
2023-02-14T11:32:07.419Z,1033.38
2023-02-14T11:33:07.035Z,1033.35
2023-02-14T11:34:07.124Z,1033.34
2023-02-14T11:35:07.111Z,1033.31
2023-02-14T11:36:07.147Z,1033.27
2023-02-14T11:37:07.059Z,1033.26
2023-02-14T11:38:07.070Z,1033.23
2023-02-14T11:39:06.977Z,1033.16
2023-02-14T11:40:06.978Z,1033.19
2023-02-14T11:41:07.267Z,1033.14
2023-02-14T11:42:07.086Z,1033.13
2023-02-14T11:43:13.959Z,1033.11
2023-02-14T11:44:10.667Z,1033.05
2023-02-14T11:45:07.028Z,1033.08
2023-02-14T11:46:06.975Z,1033.07
2023-02-14T11:47:08.606Z,1033.06
2023-02-14T11:48:07.030Z,1033.04
2023-02-14T11:49:06.976Z,1033.04
2023-02-14T11:50:12.444Z,1033.09
2023-02-14T11:51:08.614Z,1033.04
2023-02-14T11:52:08.396Z,1033.03
2023-02-14T11:53:07.973Z,1032.98
2023-02-14T11:54:07.453Z,1032.96
2023-02-14T11:55:08.196Z,1032.98
2023-02-14T11:56:06.809Z,1032.92
2023-02-14T11:57:06.903Z,1032.87
2023-02-14T11:58:06.877Z,1032.90
2023-02-14T11:59:07.225Z,1032.91
2023-02-14T12:00:07.120Z,1032.88
2023-02-14T12:01:08.742Z,1032.86
2023-02-14T12:02:09.116Z,1032.85
2023-02-14T12:03:06.631Z,1032.89
2023-02-14T12:04:06.724Z,1032.84
2023-02-14T12:05:06.840Z,1032.79
2023-02-14T12:06:07.298Z,1032.82
2023-02-14T12:07:06.683Z,1032.79
2023-02-14T12:08:06.986Z,1032.74
2023-02-14T12:09:06.577Z,1032.76
2023-02-14T12:10:06.788Z,1032.70
2023-02-14T12:11:06.777Z,1032.73
2023-02-14T12:12:06.512Z,1032.69
2023-02-14T12:13:07.413Z,1032.72
2023-02-14T12:14:06.612Z,1032.74
2023-02-14T12:15:06.813Z,1032.68
2023-02-14T12:16:06.831Z,1032.72
2023-02-14T12:17:08.388Z,1032.73
2023-02-14T12:18:06.938Z,1032.73
2023-02-14T12:19:06.634Z,1032.75
2023-02-14T12:20:06.670Z,1032.66
2023-02-14T12:21:06.753Z,1032.68
2023-02-14T12:22:07.087Z,1032.74
2023-02-14T12:23:07.786Z,1032.64
2023-02-14T12:24:06.687Z,1032.67
2023-02-14T12:25:10.066Z,1032.67
2023-02-14T12:26:07.089Z,1032.70
2023-02-14T12:27:10.093Z,1032.60
2023-02-14T12:28:12.347Z,1032.68
2023-02-14T12:29:09.217Z,1032.65
2023-02-14T12:30:18.717Z,1032.69
2023-02-14T12:31:23.504Z,1032.70
2023-02-14T12:32:11.931Z,1032.66
2023-02-14T12:33:10.876Z,1032.67